sensor_id;sensor_type;location;lat;lon;timestamp;P1;durP1;ratioP1;P2;durP2;ratioP2
42066;SDS011;27734;47.028;28.820;2023-08-21T00:00:57;15.20;;;7.80;;
42066;SDS011;27734;47.028;28.820;2023-08-21T00:03:41;20.97;;;7.97;;
42066;SDS011;27734;47.028;28.820;2023-08-21T00:06:12;16.07;;;7.67;;
42066;SDS011;27734;47.028;28.820;2023-08-21T00:08:43;16.87;;;8.63;;
42066;SDS011;27734;47.028;28.820;2023-08-21T00:11:15;16.10;;;8.13;;
42066;SDS011;27734;47.028;28.820;2023-08-21T00:13:46;16.37;;;8.13;;
42066;SDS011;27734;47.028;28.820;2023-08-21T00:16:18;16.57;;;8.20;;
42066;SDS011;27734;47.028;28.820;2023-08-21T00:18:49;19.20;;;8.20;;
42066;SDS011;27734;47.028;28.820;2023-08-21T00:21:21;16.03;;;7.73;;
42066;SDS011;27734;47.028;28.820;2023-08-21T00:23:53;16.07;;;7.40;;
42066;SDS011;27734;47.028;28.820;2023-08-21T00:26:24;14.73;;;7.87;;
42066;SDS011;27734;47.028;28.820;2023-08-21T00:28:57;15.35;;;8.55;;
42066;SDS011;27734;47.028;28.820;2023-08-21T00:31:28;13.40;;;7.63;;
42066;SDS011;27734;47.028;28.820;2023-08-21T00:33:59;14.57;;;8.10;;
42066;SDS011;27734;47.028;28.820;2023-08-21T00:36:31;15.73;;;8.30;;
42066;SDS011;27734;47.028;28.820;2023-08-21T00:39:02;17.23;;;7.80;;
42066;SDS011;27734;47.028;28.820;2023-08-21T00:41:34;17.17;;;7.80;;
42066;SDS011;27734;47.028;28.820;2023-08-21T00:44:06;16.40;;;8.17;;
42066;SDS011;27734;47.028;28.820;2023-08-21T00:46:38;19.27;;;8.90;;
42066;SDS011;27734;47.028;28.820;2023-08-21T00:49:10;17.50;;;8.07;;
42066;SDS011;27734;47.028;28.820;2023-08-21T00:51:42;15.60;;;8.03;;
42066;SDS011;27734;47.028;28.820;2023-08-21T00:54:14;14.20;;;8.17;;
42066;SDS011;27734;47.028;28.820;2023-08-21T00:56:46;17.37;;;8.20;;
42066;SDS011;27734;47.028;28.820;2023-08-21T00:59:20;16.10;;;7.77;;
42066;SDS011;27734;47.028;28.820;2023-08-21T01:01:52;17.77;;;8.00;;
42066;SDS011;27734;47.028;28.820;2023-08-21T01:04:24;14.63;;;7.90;;
42066;SDS011;27734;47.028;28.820;2023-08-21T01:06:56;21.90;;;8.07;;
42066;SDS011;27734;47.028;28.820;2023-08-21T01:09:29;16.63;;;8.87;;
42066;SDS011;27734;47.028;28.820;2023-08-21T01:12:06;19.97;;;8.40;;
42066;SDS011;27734;47.028;28.820;2023-08-21T01:14:50;18.17;;;8.40;;
42066;SDS011;27734;47.028;28.820;2023-08-21T01:17:27;17.10;;;7.90;;
42066;SDS011;27734;47.028;28.820;2023-08-21T01:19:59;19.20;;;8.60;;
42066;SDS011;27734;47.028;28.820;2023-08-21T01:22:36;14.83;;;8.03;;
42066;SDS011;27734;47.028;28.820;2023-08-21T01:25:09;14.53;;;8.00;;
42066;SDS011;27734;47.028;28.820;2023-08-21T01:27:42;19.23;;;8.03;;
42066;SDS011;27734;47.028;28.820;2023-08-21T01:30:17;17.10;;;8.80;;
42066;SDS011;27734;47.028;28.820;2023-08-21T01:32:53;16.73;;;8.33;;
42066;SDS011;27734;47.028;28.820;2023-08-21T01:35:34;14.90;;;7.70;;
42066;SDS011;27734;47.028;28.820;2023-08-21T01:38:07;18.30;;;8.10;;
42066;SDS011;27734;47.028;28.820;2023-08-21T01:40:39;21.07;;;7.97;;
42066;SDS011;27734;47.028;28.820;2023-08-21T01:43:11;13.97;;;8.23;;
42066;SDS011;27734;47.028;28.820;2023-08-21T01:45:42;15.77;;;7.90;;
42066;SDS011;27734;47.028;28.820;2023-08-21T01:48:13;14.57;;;8.00;;
42066;SDS011;27734;47.028;28.820;2023-08-21T01:50:47;18.80;;;8.70;;
42066;SDS011;27734;47.028;28.820;2023-08-21T01:53:18;12.53;;;8.13;;
42066;SDS011;27734;47.028;28.820;2023-08-21T01:55:50;14.10;;;8.07;;
42066;SDS011;27734;47.028;28.820;2023-08-21T01:58:21;17.77;;;8.27;;
42066;SDS011;27734;47.028;28.820;2023-08-21T02:00:52;15.03;;;7.97;;
42066;SDS011;27734;47.028;28.820;2023-08-21T02:03:26;15.57;;;8.30;;
42066;SDS011;27734;47.028;28.820;2023-08-21T02:05:58;13.45;;;8.00;;
42066;SDS011;27734;47.028;28.820;2023-08-21T02:08:33;17.53;;;8.50;;
42066;SDS011;27734;47.028;28.820;2023-08-21T02:11:04;16.47;;;8.50;;
42066;SDS011;27734;47.028;28.820;2023-08-21T02:13:37;16.20;;;8.10;;
42066;SDS011;27734;47.028;28.820;2023-08-21T02:16:08;17.97;;;8.47;;
42066;SDS011;27734;47.028;28.820;2023-08-21T02:18:40;19.80;;;8.23;;
42066;SDS011;27734;47.028;28.820;2023-08-21T02:21:11;14.63;;;8.47;;
42066;SDS011;27734;47.028;28.820;2023-08-21T02:23:42;17.00;;;8.20;;
42066;SDS011;27734;47.028;28.820;2023-08-21T02:26:14;14.93;;;8.27;;
42066;SDS011;27734;47.028;28.820;2023-08-21T02:28:47;15.33;;;8.17;;
42066;SDS011;27734;47.028;28.820;2023-08-21T02:31:19;15.73;;;8.73;;
42066;SDS011;27734;47.028;28.820;2023-08-21T02:33:52;17.12;;;8.45;;
42066;SDS011;27734;47.028;28.820;2023-08-21T02:36:23;14.63;;;7.90;;
42066;SDS011;27734;47.028;28.820;2023-08-21T02:38:55;15.50;;;8.00;;
42066;SDS011;27734;47.028;28.820;2023-08-21T02:41:26;16.00;;;8.07;;
42066;SDS011;27734;47.028;28.820;2023-08-21T02:43:57;16.10;;;8.60;;
42066;SDS011;27734;47.028;28.820;2023-08-21T02:46:29;18.05;;;8.45;;
42066;SDS011;27734;47.028;28.820;2023-08-21T02:49:01;17.93;;;8.23;;
42066;SDS011;27734;47.028;28.820;2023-08-21T02:51:32;15.97;;;8.70;;
42066;SDS011;27734;47.028;28.820;2023-08-21T02:54:04;15.97;;;8.43;;
42066;SDS011;27734;47.028;28.820;2023-08-21T02:56:37;17.00;;;8.40;;
42066;SDS011;27734;47.028;28.820;2023-08-21T02:59:09;16.13;;;8.73;;
42066;SDS011;27734;47.028;28.820;2023-08-21T03:01:40;14.70;;;8.10;;
42066;SDS011;27734;47.028;28.820;2023-08-21T03:04:11;14.03;;;8.50;;
42066;SDS011;27734;47.028;28.820;2023-08-21T03:06:45;16.77;;;9.03;;
42066;SDS011;27734;47.028;28.820;2023-08-21T03:09:18;13.72;;;8.20;;
42066;SDS011;27734;47.028;28.820;2023-08-21T03:11:49;16.67;;;8.20;;
42066;SDS011;27734;47.028;28.820;2023-08-21T03:14:21;16.10;;;8.93;;
42066;SDS011;27734;47.028;28.820;2023-08-21T03:16:52;16.93;;;8.70;;
42066;SDS011;27734;47.028;28.820;2023-08-21T03:19:23;18.37;;;9.03;;
42066;SDS011;27734;47.028;28.820;2023-08-21T03:21:55;18.00;;;8.90;;
42066;SDS011;27734;47.028;28.820;2023-08-21T03:24:26;15.67;;;8.47;;
42066;SDS011;27734;47.028;28.820;2023-08-21T03:26:58;18.43;;;8.73;;
42066;SDS011;27734;47.028;28.820;2023-08-21T03:29:30;19.43;;;8.73;;
42066;SDS011;27734;47.028;28.820;2023-08-21T03:32:02;18.70;;;8.27;;
42066;SDS011;27734;47.028;28.820;2023-08-21T03:34:34;14.70;;;8.83;;
42066;SDS011;27734;47.028;28.820;2023-08-21T03:37:05;18.33;;;9.10;;
42066;SDS011;27734;47.028;28.820;2023-08-21T03:39:37;17.23;;;8.80;;
42066;SDS011;27734;47.028;28.820;2023-08-21T03:42:11;16.10;;;8.97;;
42066;SDS011;27734;47.028;28.820;2023-08-21T03:44:46;16.37;;;8.70;;
42066;SDS011;27734;47.028;28.820;2023-08-21T03:47:18;18.47;;;9.03;;
42066;SDS011;27734;47.028;28.820;2023-08-21T03:49:54;21.20;;;8.87;;
42066;SDS011;27734;47.028;28.820;2023-08-21T03:52:26;16.57;;;8.80;;
42066;SDS011;27734;47.028;28.820;2023-08-21T03:54:58;17.73;;;8.83;;
42066;SDS011;27734;47.028;28.820;2023-08-21T03:57:29;19.73;;;9.30;;
42066;SDS011;27734;47.028;28.820;2023-08-21T04:00:01;19.60;;;9.43;;
42066;SDS011;27734;47.028;28.820;2023-08-21T04:02:43;17.97;;;8.73;;
42066;SDS011;27734;47.028;28.820;2023-08-21T04:05:14;15.37;;;8.93;;
42066;SDS011;27734;47.028;28.820;2023-08-21T04:07:46;19.17;;;9.20;;
42066;SDS011;27734;47.028;28.820;2023-08-21T04:10:17;17.47;;;9.17;;
42066;SDS011;27734;47.028;28.820;2023-08-21T04:12:48;16.43;;;8.73;;
42066;SDS011;27734;47.028;28.820;2023-08-21T04:15:20;18.73;;;9.73;;
42066;SDS011;27734;47.028;28.820;2023-08-21T04:17:52;24.07;;;9.20;;
42066;SDS011;27734;47.028;28.820;2023-08-21T04:20:23;18.43;;;9.93;;
42066;SDS011;27734;47.028;28.820;2023-08-21T04:22:54;19.40;;;10.03;;
42066;SDS011;27734;47.028;28.820;2023-08-21T04:25:26;19.70;;;10.30;;
42066;SDS011;27734;47.028;28.820;2023-08-21T04:27:58;19.40;;;10.03;;
42066;SDS011;27734;47.028;28.820;2023-08-21T04:30:30;18.17;;;9.10;;
42066;SDS011;27734;47.028;28.820;2023-08-21T04:33:01;17.20;;;9.77;;
42066;SDS011;27734;47.028;28.820;2023-08-21T04:35:37;16.80;;;9.50;;
42066;SDS011;27734;47.028;28.820;2023-08-21T04:38:09;22.10;;;10.03;;
42066;SDS011;27734;47.028;28.820;2023-08-21T04:40:40;17.30;;;9.30;;
42066;SDS011;27734;47.028;28.820;2023-08-21T04:43:12;18.73;;;9.07;;
42066;SDS011;27734;47.028;28.820;2023-08-21T04:45:48;20.10;;;9.23;;
42066;SDS011;27734;47.028;28.820;2023-08-21T04:48:21;18.27;;;8.67;;
42066;SDS011;27734;47.028;28.820;2023-08-21T04:50:52;17.97;;;9.70;;
42066;SDS011;27734;47.028;28.820;2023-08-21T04:53:25;19.13;;;9.20;;
42066;SDS011;27734;47.028;28.820;2023-08-21T04:55:59;18.57;;;9.23;;
42066;SDS011;27734;47.028;28.820;2023-08-21T04:58:31;15.83;;;8.70;;
42066;SDS011;27734;47.028;28.820;2023-08-21T05:01:09;21.10;;;9.17;;
42066;SDS011;27734;47.028;28.820;2023-08-21T05:03:44;21.37;;;9.73;;
42066;SDS011;27734;47.028;28.820;2023-08-21T05:06:17;17.07;;;9.43;;
42066;SDS011;27734;47.028;28.820;2023-08-21T05:11:19;17.00;;;9.10;;
42066;SDS011;27734;47.028;28.820;2023-08-21T05:13:50;17.77;;;8.90;;
42066;SDS011;27734;47.028;28.820;2023-08-21T05:16:22;17.83;;;9.60;;
42066;SDS011;27734;47.028;28.820;2023-08-21T05:18:55;18.10;;;9.20;;
42066;SDS011;27734;47.028;28.820;2023-08-21T05:21:28;19.20;;;9.53;;
42066;SDS011;27734;47.028;28.820;2023-08-21T05:23:59;19.98;;;9.60;;
42066;SDS011;27734;47.028;28.820;2023-08-21T05:26:34;26.00;;;10.03;;
42066;SDS011;27734;47.028;28.820;2023-08-21T05:29:07;19.50;;;9.23;;
42066;SDS011;27734;47.028;28.820;2023-08-21T05:31:40;19.00;;;9.47;;
42066;SDS011;27734;47.028;28.820;2023-08-21T05:34:11;17.17;;;9.33;;
42066;SDS011;27734;47.028;28.820;2023-08-21T05:36:47;21.77;;;9.47;;
42066;SDS011;27734;47.028;28.820;2023-08-21T05:39:21;15.70;;;8.60;;
42066;SDS011;27734;47.028;28.820;2023-08-21T05:41:53;15.43;;;8.90;;
42066;SDS011;27734;47.028;28.820;2023-08-21T05:44:31;22.63;;;9.43;;
42066;SDS011;27734;47.028;28.820;2023-08-21T05:47:09;20.37;;;9.70;;
42066;SDS011;27734;47.028;28.820;2023-08-21T05:49:42;20.20;;;9.23;;
42066;SDS011;27734;47.028;28.820;2023-08-21T05:52:24;19.77;;;10.00;;
42066;SDS011;27734;47.028;28.820;2023-08-21T05:55:05;18.73;;;9.03;;
42066;SDS011;27734;47.028;28.820;2023-08-21T06:00:14;18.00;;;9.30;;
42066;SDS011;27734;47.028;28.820;2023-08-21T06:02:49;17.83;;;9.47;;
42066;SDS011;27734;47.028;28.820;2023-08-21T06:05:44;19.70;;;9.60;;
42066;SDS011;27734;47.028;28.820;2023-08-21T06:12:04;18.97;;;9.70;;
42066;SDS011;27734;47.028;28.820;2023-08-21T06:15:09;23.27;;;9.47;;
42066;SDS011;27734;47.028;28.820;2023-08-21T06:17:47;19.87;;;10.03;;
42066;SDS011;27734;47.028;28.820;2023-08-21T06:20:46;20.73;;;9.70;;
42066;SDS011;27734;47.028;28.820;2023-08-21T06:23:24;23.80;;;9.80;;
42066;SDS011;27734;47.028;28.820;2023-08-21T06:26:09;20.30;;;9.73;;
42066;SDS011;27734;47.028;28.820;2023-08-21T06:28:48;20.27;;;9.50;;
42066;SDS011;27734;47.028;28.820;2023-08-21T06:31:26;20.00;;;9.47;;
42066;SDS011;27734;47.028;28.820;2023-08-21T06:34:13;23.57;;;9.83;;
42066;SDS011;27734;47.028;28.820;2023-08-21T06:36:51;23.98;;;9.68;;
42066;SDS011;27734;47.028;28.820;2023-08-21T06:39:36;22.77;;;9.20;;
42066;SDS011;27734;47.028;28.820;2023-08-21T06:42:18;18.83;;;9.73;;
42066;SDS011;27734;47.028;28.820;2023-08-21T06:44:59;22.97;;;9.50;;
42066;SDS011;27734;47.028;28.820;2023-08-21T06:47:44;20.43;;;9.67;;
42066;SDS011;27734;47.028;28.820;2023-08-21T06:50:43;22.30;;;9.30;;
42066;SDS011;27734;47.028;28.820;2023-08-21T06:53:40;20.93;;;9.97;;
42066;SDS011;27734;47.028;28.820;2023-08-21T06:56:27;22.32;;;9.93;;
42066;SDS011;27734;47.028;28.820;2023-08-21T06:59:08;19.97;;;10.50;;
42066;SDS011;27734;47.028;28.820;2023-08-21T07:01:45;23.43;;;9.87;;
42066;SDS011;27734;47.028;28.820;2023-08-21T07:04:32;16.97;;;9.13;;
42066;SDS011;27734;47.028;28.820;2023-08-21T07:07:08;20.70;;;10.20;;
42066;SDS011;27734;47.028;28.820;2023-08-21T07:10:12;18.73;;;10.07;;
42066;SDS011;27734;47.028;28.820;2023-08-21T07:12:53;17.67;;;8.93;;
42066;SDS011;27734;47.028;28.820;2023-08-21T07:18:44;16.80;;;8.60;;
42066;SDS011;27734;47.028;28.820;2023-08-21T07:24:15;19.63;;;8.97;;
42066;SDS011;27734;47.028;28.820;2023-08-21T07:30:20;17.80;;;8.60;;
42066;SDS011;27734;47.028;28.820;2023-08-21T07:33:10;17.67;;;8.30;;
42066;SDS011;27734;47.028;28.820;2023-08-21T07:38:53;19.83;;;8.93;;
42066;SDS011;27734;47.028;28.820;2023-08-21T07:41:28;20.40;;;8.93;;
42066;SDS011;27734;47.028;28.820;2023-08-21T07:44:11;19.50;;;8.63;;
42066;SDS011;27734;47.028;28.820;2023-08-21T07:46:43;15.23;;;8.27;;
42066;SDS011;27734;47.028;28.820;2023-08-21T07:49:48;14.87;;;8.10;;
42066;SDS011;27734;47.028;28.820;2023-08-21T07:58:40;16.17;;;7.73;;
42066;SDS011;27734;47.028;28.820;2023-08-21T08:01:37;16.17;;;8.43;;
42066;SDS011;27734;47.028;28.820;2023-08-21T08:04:32;16.30;;;7.73;;
42066;SDS011;27734;47.028;28.820;2023-08-21T08:10:12;13.93;;;7.80;;
42066;SDS011;27734;47.028;28.820;2023-08-21T08:12:44;14.47;;;7.07;;
42066;SDS011;27734;47.028;28.820;2023-08-21T08:18:57;14.33;;;7.55;;
42066;SDS011;27734;47.028;28.820;2023-08-21T08:24:40;15.53;;;6.83;;
42066;SDS011;27734;47.028;28.820;2023-08-21T08:27:14;13.57;;;7.40;;
42066;SDS011;27734;47.028;28.820;2023-08-21T08:29:53;10.13;;;6.87;;
42066;SDS011;27734;47.028;28.820;2023-08-21T08:35:19;12.10;;;7.23;;
42066;SDS011;27734;47.028;28.820;2023-08-21T08:38:07;15.87;;;7.20;;
42066;SDS011;27734;47.028;28.820;2023-08-21T08:40:51;15.07;;;7.27;;
42066;SDS011;27734;47.028;28.820;2023-08-21T08:43:31;12.77;;;6.80;;
42066;SDS011;27734;47.028;28.820;2023-08-21T08:46:26;11.10;;;7.30;;
42066;SDS011;27734;47.028;28.820;2023-08-21T08:49:19;10.37;;;6.33;;
42066;SDS011;27734;47.028;28.820;2023-08-21T08:52:05;15.37;;;7.70;;
42066;SDS011;27734;47.028;28.820;2023-08-21T08:54:42;11.73;;;6.90;;
42066;SDS011;27734;47.028;28.820;2023-08-21T08:57:44;13.20;;;7.30;;
42066;SDS011;27734;47.028;28.820;2023-08-21T09:03:34;10.60;;;6.77;;
42066;SDS011;27734;47.028;28.820;2023-08-21T09:06:27;12.07;;;6.73;;
42066;SDS011;27734;47.028;28.820;2023-08-21T09:09:00;11.63;;;7.03;;
42066;SDS011;27734;47.028;28.820;2023-08-21T09:11:41;9.70;;;6.70;;
42066;SDS011;27734;47.028;28.820;2023-08-21T09:17:36;11.75;;;6.42;;
42066;SDS011;27734;47.028;28.820;2023-08-21T09:20:11;8.97;;;6.07;;
42066;SDS011;27734;47.028;28.820;2023-08-21T09:22:45;13.60;;;6.70;;
42066;SDS011;27734;47.028;28.820;2023-08-21T09:25:26;11.17;;;6.57;;
42066;SDS011;27734;47.028;28.820;2023-08-21T09:28:20;8.83;;;6.07;;
42066;SDS011;27734;47.028;28.820;2023-08-21T09:31:03;12.47;;;6.37;;
42066;SDS011;27734;47.028;28.820;2023-08-21T09:33:56;11.30;;;6.77;;
42066;SDS011;27734;47.028;28.820;2023-08-21T09:39:46;13.50;;;6.47;;
42066;SDS011;27734;47.028;28.820;2023-08-21T09:42:20;10.00;;;6.30;;
42066;SDS011;27734;47.028;28.820;2023-08-21T09:45:01;9.98;;;5.90;;
42066;SDS011;27734;47.028;28.820;2023-08-21T09:47:38;11.47;;;6.63;;
42066;SDS011;27734;47.028;28.820;2023-08-21T09:50:21;8.63;;;6.30;;
42066;SDS011;27734;47.028;28.820;2023-08-21T09:52:57;10.40;;;5.93;;
42066;SDS011;27734;47.028;28.820;2023-08-21T09:55:36;9.97;;;5.87;;
42066;SDS011;27734;47.028;28.820;2023-08-21T09:58:31;9.50;;;5.97;;
42066;SDS011;27734;47.028;28.820;2023-08-21T10:01:06;10.03;;;5.90;;
42066;SDS011;27734;47.028;28.820;2023-08-21T10:03:46;10.00;;;5.70;;
42066;SDS011;27734;47.028;28.820;2023-08-21T10:06:26;12.33;;;5.90;;
42066;SDS011;27734;47.028;28.820;2023-08-21T10:09:28;11.23;;;5.93;;
42066;SDS011;27734;47.028;28.820;2023-08-21T10:12:20;12.03;;;6.03;;
42066;SDS011;27734;47.028;28.820;2023-08-21T10:15:02;13.50;;;6.23;;
42066;SDS011;27734;47.028;28.820;2023-08-21T10:17:45;15.53;;;6.17;;
42066;SDS011;27734;47.028;28.820;2023-08-21T10:20:22;10.07;;;5.83;;
42066;SDS011;27734;47.028;28.820;2023-08-21T10:26:06;10.77;;;6.20;;
42066;SDS011;27734;47.028;28.820;2023-08-21T10:28:55;8.40;;;5.80;;
42066;SDS011;27734;47.028;28.820;2023-08-21T10:35:03;14.03;;;6.23;;
42066;SDS011;27734;47.028;28.820;2023-08-21T10:41:07;10.73;;;6.20;;
42066;SDS011;27734;47.028;28.820;2023-08-21T10:43:49;10.23;;;6.30;;
42066;SDS011;27734;47.028;28.820;2023-08-21T10:46:30;11.07;;;6.50;;
42066;SDS011;27734;47.028;28.820;2023-08-21T10:49:46;11.90;;;6.33;;
42066;SDS011;27734;47.028;28.820;2023-08-21T10:55:55;12.37;;;6.63;;
42066;SDS011;27734;47.028;28.820;2023-08-21T10:58:40;14.57;;;6.60;;
42066;SDS011;27734;47.028;28.820;2023-08-21T11:01:22;10.67;;;6.20;;
42066;SDS011;27734;47.028;28.820;2023-08-21T11:04:08;8.67;;;6.20;;
42066;SDS011;27734;47.028;28.820;2023-08-21T11:06:42;9.90;;;6.53;;
42066;SDS011;27734;47.028;28.820;2023-08-21T11:09:43;11.13;;;5.77;;
42066;SDS011;27734;47.028;28.820;2023-08-21T11:16:06;15.63;;;6.50;;
42066;SDS011;27734;47.028;28.820;2023-08-21T11:19:24;11.90;;;6.17;;
42066;SDS011;27734;47.028;28.820;2023-08-21T11:22:03;12.60;;;6.60;;
42066;SDS011;27734;47.028;28.820;2023-08-21T11:24:57;12.97;;;6.23;;
42066;SDS011;27734;47.028;28.820;2023-08-21T11:27:32;10.93;;;6.30;;
42066;SDS011;27734;47.028;28.820;2023-08-21T11:30:16;10.73;;;6.43;;
42066;SDS011;27734;47.028;28.820;2023-08-21T11:33:10;10.97;;;6.57;;
42066;SDS011;27734;47.028;28.820;2023-08-21T11:35:48;10.03;;;6.47;;
42066;SDS011;27734;47.028;28.820;2023-08-21T11:38:31;11.43;;;6.77;;
42066;SDS011;27734;47.028;28.820;2023-08-21T11:41:10;11.87;;;6.77;;
42066;SDS011;27734;47.028;28.820;2023-08-21T11:44:03;10.43;;;6.30;;
42066;SDS011;27734;47.028;28.820;2023-08-21T11:49:49;14.63;;;6.73;;
42066;SDS011;27734;47.028;28.820;2023-08-21T11:52:26;10.70;;;6.20;;
42066;SDS011;27734;47.028;28.820;2023-08-21T11:55:09;9.47;;;5.90;;
42066;SDS011;27734;47.028;28.820;2023-08-21T11:57:50;11.10;;;6.50;;
42066;SDS011;27734;47.028;28.820;2023-08-21T12:01:42;11.23;;;5.97;;
42066;SDS011;27734;47.028;28.820;2023-08-21T12:04:23;11.00;;;6.33;;
42066;SDS011;27734;47.028;28.820;2023-08-21T12:07:02;11.83;;;6.23;;
42066;SDS011;27734;47.028;28.820;2023-08-21T12:09:48;8.57;;;6.17;;
42066;SDS011;27734;47.028;28.820;2023-08-21T12:12:23;13.23;;;6.67;;
42066;SDS011;27734;47.028;28.820;2023-08-21T12:14:57;14.47;;;6.37;;
42066;SDS011;27734;47.028;28.820;2023-08-21T12:17:42;13.20;;;6.40;;
42066;SDS011;27734;47.028;28.820;2023-08-21T12:20:33;12.97;;;6.20;;
42066;SDS011;27734;47.028;28.820;2023-08-21T12:24:06;8.83;;;6.17;;
42066;SDS011;27734;47.028;28.820;2023-08-21T12:27:14;12.33;;;6.43;;
42066;SDS011;27734;47.028;28.820;2023-08-21T12:30:15;12.30;;;6.90;;
42066;SDS011;27734;47.028;28.820;2023-08-21T12:35:56;11.70;;;6.30;;
42066;SDS011;27734;47.028;28.820;2023-08-21T12:38:40;12.33;;;6.97;;
42066;SDS011;27734;47.028;28.820;2023-08-21T12:41:33;12.90;;;6.93;;
42066;SDS011;27734;47.028;28.820;2023-08-21T12:44:40;10.57;;;6.60;;
42066;SDS011;27734;47.028;28.820;2023-08-21T12:47:18;14.57;;;6.80;;
42066;SDS011;27734;47.028;28.820;2023-08-21T12:50:03;15.97;;;7.13;;
42066;SDS011;27734;47.028;28.820;2023-08-21T12:52:53;10.67;;;6.47;;
42066;SDS011;27734;47.028;28.820;2023-08-21T12:55:38;13.55;;;6.95;;
42066;SDS011;27734;47.028;28.820;2023-08-21T12:58:45;14.27;;;6.53;;
42066;SDS011;27734;47.028;28.820;2023-08-21T13:01:41;13.87;;;7.17;;
42066;SDS011;27734;47.028;28.820;2023-08-21T13:04:34;14.17;;;7.20;;
42066;SDS011;27734;47.028;28.820;2023-08-21T13:07:21;11.97;;;6.57;;
42066;SDS011;27734;47.028;28.820;2023-08-21T13:10:03;14.17;;;7.13;;
42066;SDS011;27734;47.028;28.820;2023-08-21T13:12:50;16.40;;;7.10;;
42066;SDS011;27734;47.028;28.820;2023-08-21T13:15:29;13.07;;;6.73;;
42066;SDS011;27734;47.028;28.820;2023-08-21T13:18:20;15.60;;;6.80;;
42066;SDS011;27734;47.028;28.820;2023-08-21T13:21:09;15.87;;;6.87;;
42066;SDS011;27734;47.028;28.820;2023-08-21T13:23:59;13.97;;;6.90;;
42066;SDS011;27734;47.028;28.820;2023-08-21T13:26:42;13.10;;;6.87;;
42066;SDS011;27734;47.028;28.820;2023-08-21T13:29:46;14.90;;;7.50;;
42066;SDS011;27734;47.028;28.820;2023-08-21T13:32:26;14.17;;;6.93;;
42066;SDS011;27734;47.028;28.820;2023-08-21T13:35:10;14.90;;;7.00;;
42066;SDS011;27734;47.028;28.820;2023-08-21T13:38:04;13.03;;;7.03;;
42066;SDS011;27734;47.028;28.820;2023-08-21T13:40:43;14.20;;;6.90;;
42066;SDS011;27734;47.028;28.820;2023-08-21T13:43:17;13.53;;;7.47;;
42066;SDS011;27734;47.028;28.820;2023-08-21T13:45:53;14.47;;;7.30;;
42066;SDS011;27734;47.028;28.820;2023-08-21T13:48:26;14.53;;;7.23;;
42066;SDS011;27734;47.028;28.820;2023-08-21T13:51:01;12.93;;;6.70;;
42066;SDS011;27734;47.028;28.820;2023-08-21T13:53:43;13.50;;;7.10;;
42066;SDS011;27734;47.028;28.820;2023-08-21T13:56:18;13.73;;;7.30;;
42066;SDS011;27734;47.028;28.820;2023-08-21T13:58:52;17.90;;;7.07;;
42066;SDS011;27734;47.028;28.820;2023-08-21T14:01:37;15.60;;;7.57;;
42066;SDS011;27734;47.028;28.820;2023-08-21T14:04:13;11.97;;;7.43;;
42066;SDS011;27734;47.028;28.820;2023-08-21T14:06:48;16.77;;;7.60;;
42066;SDS011;27734;47.028;28.820;2023-08-21T14:09:25;12.93;;;7.60;;
42066;SDS011;27734;47.028;28.820;2023-08-21T14:12:10;13.23;;;7.60;;
42066;SDS011;27734;47.028;28.820;2023-08-21T14:14:43;14.70;;;7.67;;
42066;SDS011;27734;47.028;28.820;2023-08-21T14:17:22;13.95;;;7.60;;
42066;SDS011;27734;47.028;28.820;2023-08-21T14:19:54;15.93;;;7.80;;
42066;SDS011;27734;47.028;28.820;2023-08-21T14:22:37;13.70;;;7.53;;
42066;SDS011;27734;47.028;28.820;2023-08-21T14:27:41;17.50;;;7.60;;
42066;SDS011;27734;47.028;28.820;2023-08-21T14:30:13;17.10;;;8.20;;
42066;SDS011;27734;47.028;28.820;2023-08-21T14:32:45;11.63;;;7.30;;
42066;SDS011;27734;47.028;28.820;2023-08-21T14:37:50;15.00;;;7.50;;
42066;SDS011;27734;47.028;28.820;2023-08-21T14:40:24;12.50;;;7.53;;
42066;SDS011;27734;47.028;28.820;2023-08-21T14:42:56;12.03;;;7.40;;
42066;SDS011;27734;47.028;28.820;2023-08-21T14:45:28;11.57;;;7.83;;
42066;SDS011;27734;47.028;28.820;2023-08-21T14:47:59;14.47;;;7.27;;
42066;SDS011;27734;47.028;28.820;2023-08-21T14:50:30;13.23;;;7.67;;
42066;SDS011;27734;47.028;28.820;2023-08-21T14:53:02;16.53;;;8.83;;
42066;SDS011;27734;47.028;28.820;2023-08-21T14:55:33;13.33;;;7.93;;
42066;SDS011;27734;47.028;28.820;2023-08-21T14:58:05;14.93;;;8.10;;
42066;SDS011;27734;47.028;28.820;2023-08-21T15:00:37;13.50;;;7.85;;
42066;SDS011;27734;47.028;28.820;2023-08-21T15:03:10;16.05;;;8.00;;
42066;SDS011;27734;47.028;28.820;2023-08-21T15:05:42;14.50;;;8.10;;
42066;SDS011;27734;47.028;28.820;2023-08-21T15:08:13;14.80;;;8.20;;
42066;SDS011;27734;47.028;28.820;2023-08-21T15:10:53;11.60;;;8.08;;
42066;SDS011;27734;47.028;28.820;2023-08-21T15:13:28;12.23;;;8.17;;
42066;SDS011;27734;47.028;28.820;2023-08-21T15:16:05;18.03;;;8.60;;
42066;SDS011;27734;47.028;28.820;2023-08-21T15:18:41;14.27;;;7.93;;
42066;SDS011;27734;47.028;28.820;2023-08-21T15:21:14;17.27;;;8.73;;
42066;SDS011;27734;47.028;28.820;2023-08-21T15:23:48;14.63;;;8.63;;
42066;SDS011;27734;47.028;28.820;2023-08-21T15:26:20;16.35;;;8.90;;
42066;SDS011;27734;47.028;28.820;2023-08-21T15:28:51;17.23;;;8.87;;
42066;SDS011;27734;47.028;28.820;2023-08-21T15:31:25;14.63;;;8.07;;
42066;SDS011;27734;47.028;28.820;2023-08-21T15:33:57;19.67;;;8.10;;
42066;SDS011;27734;47.028;28.820;2023-08-21T15:36:28;15.60;;;7.87;;
42066;SDS011;27734;47.028;28.820;2023-08-21T15:38:59;12.07;;;7.87;;
42066;SDS011;27734;47.028;28.820;2023-08-21T15:41:32;14.35;;;8.55;;
42066;SDS011;27734;47.028;28.820;2023-08-21T15:44:03;15.33;;;8.20;;
42066;SDS011;27734;47.028;28.820;2023-08-21T15:46:34;14.90;;;8.20;;
42066;SDS011;27734;47.028;28.820;2023-08-21T15:49:05;14.73;;;8.13;;
42066;SDS011;27734;47.028;28.820;2023-08-21T15:51:40;12.77;;;7.93;;
42066;SDS011;27734;47.028;28.820;2023-08-21T15:54:13;14.83;;;8.07;;
42066;SDS011;27734;47.028;28.820;2023-08-21T15:56:47;13.73;;;7.70;;
42066;SDS011;27734;47.028;28.820;2023-08-21T15:59:19;13.50;;;7.50;;
42066;SDS011;27734;47.028;28.820;2023-08-21T16:01:50;12.60;;;7.93;;
42066;SDS011;27734;47.028;28.820;2023-08-21T16:04:21;17.07;;;8.40;;
42066;SDS011;27734;47.028;28.820;2023-08-21T16:06:53;12.53;;;8.00;;
42066;SDS011;27734;47.028;28.820;2023-08-21T16:09:24;17.03;;;8.33;;
42066;SDS011;27734;47.028;28.820;2023-08-21T16:11:55;15.83;;;8.40;;
42066;SDS011;27734;47.028;28.820;2023-08-21T16:14:27;13.43;;;8.10;;
42066;SDS011;27734;47.028;28.820;2023-08-21T16:16:58;13.37;;;8.30;;
42066;SDS011;27734;47.028;28.820;2023-08-21T16:19:30;14.83;;;8.17;;
42066;SDS011;27734;47.028;28.820;2023-08-21T16:22:02;14.13;;;8.03;;
42066;SDS011;27734;47.028;28.820;2023-08-21T16:24:33;12.30;;;8.07;;
42066;SDS011;27734;47.028;28.820;2023-08-21T16:27:06;16.30;;;8.20;;
42066;SDS011;27734;47.028;28.820;2023-08-21T16:29:41;17.40;;;8.53;;
42066;SDS011;27734;47.028;28.820;2023-08-21T16:32:13;17.47;;;8.20;;
42066;SDS011;27734;47.028;28.820;2023-08-21T16:34:44;14.93;;;8.70;;
42066;SDS011;27734;47.028;28.820;2023-08-21T16:37:17;12.40;;;7.90;;
42066;SDS011;27734;47.028;28.820;2023-08-21T16:39:48;15.17;;;8.77;;
42066;SDS011;27734;47.028;28.820;2023-08-21T16:42:20;12.30;;;8.23;;